METAR UND TAF INFORMATION
HESH 180800Z 01018KT CAVOK 29/13 Q1010 NOSIG

 FLUGHAFENKARTE

 RUNWAY INFORMATION
Runway 04R Runway length 10108 ft Runway width 148 ft
Runway elevation 114 ft Runway displaced threshold 0 ft Runway heading 43
Runway 22L Runway length 10108 ft Runway width 148 ft
Runway elevation 117 ft Runway displaced threshold 0 ft Runway heading 223
Runway 04L Runway length 10108 ft Runway width 148 ft
Runway elevation 134 ft Runway displaced threshold 0 ft Runway heading 43
Runway 22R Runway length 10108 ft Runway width 148 ft
Runway elevation 119 ft Runway displaced threshold 0 ft Runway heading 223

 AIRPORT FREQUENCIES
Type APP Name RADAR Frequency 121.1 MHZ
Type GND Name GND Frequency 121.9 MHZ
Type RDO Name RDO Frequency 317.5 MHZ
Type TWR Name TWR Frequency 118.9 MHZ

 AIRPORT NEAR NAVIGATION AIDS
Type VOR-DME Name Sharm El Sheikh Frequency 114200 KHZ
Type NDB Name Sharm El Sheikh Frequency 335 KHZ